createdAt,value
2019-02-11T00:00:23.906Z,27.70
2019-02-11T00:02:52.483Z,34.00
2019-02-11T00:05:21.058Z,27.93
2019-02-11T00:07:50.074Z,25.13
2019-02-11T00:10:18.643Z,27.67
2019-02-11T00:12:47.213Z,28.87
2019-02-11T00:15:15.793Z,22.13
2019-02-11T00:17:44.362Z,34.50
2019-02-11T00:20:12.946Z,27.37
2019-02-11T00:22:41.510Z,26.23
2019-02-11T00:25:10.161Z,23.10
2019-02-11T00:27:38.794Z,34.93
2019-02-11T00:30:10.108Z,18.77
2019-02-11T00:32:38.674Z,16.77
2019-02-11T00:35:07.686Z,22.00
2019-02-11T00:37:36.266Z,23.17
2019-02-11T00:40:05.374Z,20.90
2019-02-11T00:42:33.954Z,17.63
2019-02-11T00:45:02.702Z,25.67
2019-02-11T00:47:31.281Z,25.87
2019-02-11T00:49:59.878Z,24.30
2019-02-11T00:52:28.464Z,22.27
2019-02-11T00:54:57.026Z,29.13
2019-02-11T00:57:25.598Z,21.17
2019-02-11T00:59:54.174Z,21.47
2019-02-11T01:02:22.742Z,20.13
2019-02-11T01:04:51.342Z,20.83
2019-02-11T01:07:19.909Z,27.73
2019-02-11T01:09:48.566Z,33.10
2019-02-11T01:12:17.133Z,22.97
2019-02-11T01:14:45.711Z,32.30
2019-02-11T01:17:14.277Z,23.87
2019-02-11T01:19:42.865Z,27.23
2019-02-11T01:22:11.426Z,32.57
2019-02-11T01:24:39.994Z,27.63
2019-02-11T01:27:08.574Z,31.23
2019-02-11T01:29:37.146Z,22.90
2019-02-11T01:32:05.726Z,37.27
2019-02-11T01:34:34.374Z,27.83
2019-02-11T01:37:02.957Z,28.73
2019-02-11T01:39:31.526Z,19.57
2019-02-11T01:42:00.171Z,28.07
2019-02-11T01:44:28.738Z,25.23
2019-02-11T01:46:57.301Z,34.73
2019-02-11T01:49:25.877Z,36.23
2019-02-11T01:51:54.461Z,41.77
2019-02-11T01:54:23.114Z,32.23
2019-02-11T01:56:51.682Z,21.63
2019-02-11T01:59:20.329Z,24.27
2019-02-11T02:01:48.898Z,22.90
2019-02-11T02:04:17.670Z,34.13
2019-02-11T02:06:46.239Z,30.73
2019-02-11T02:09:14.805Z,29.27
2019-02-11T02:11:43.525Z,21.17
2019-02-11T02:14:12.094Z,21.30
2019-02-11T02:16:40.670Z,21.43
2019-02-11T02:19:09.317Z,25.50
2019-02-11T02:21:37.899Z,25.93
2019-02-11T02:24:06.562Z,27.87
2019-02-11T02:26:35.125Z,29.90
2019-02-11T02:29:03.771Z,34.87
2019-02-11T02:31:32.494Z,34.17
2019-02-11T02:34:01.061Z,32.57
2019-02-11T02:36:29.631Z,43.13
2019-02-11T02:38:58.279Z,38.53
2019-02-11T02:41:26.848Z,39.30
2019-02-11T02:43:56.008Z,41.17
2019-02-11T02:46:24.698Z,40.33
2019-02-11T02:48:53.301Z,30.80
2019-02-11T02:51:21.871Z,35.77
2019-02-11T02:53:50.509Z,34.37
2019-02-11T02:56:19.097Z,35.23
2019-02-11T02:58:47.661Z,33.03
2019-02-11T03:01:16.248Z,32.63
2019-02-11T03:03:44.825Z,41.47
2019-02-11T03:06:13.414Z,44.67
2019-02-11T03:08:43.932Z,31.93
2019-02-11T03:11:12.330Z,36.43
2019-02-11T03:13:40.975Z,34.53
2019-02-11T03:16:09.538Z,32.77
2019-02-11T03:18:38.118Z,35.47
2019-02-11T03:21:06.682Z,45.57
2019-02-11T03:23:35.262Z,37.10
2019-02-11T03:26:03.837Z,42.40
2019-02-11T03:28:32.487Z,34.40
2019-02-11T03:31:01.055Z,39.37
2019-02-11T03:33:29.631Z,32.20
2019-02-11T03:35:58.197Z,34.93
2019-02-11T03:38:26.766Z,33.03
2019-02-11T03:40:55.343Z,44.73
2019-02-11T03:43:23.918Z,28.63
2019-02-11T03:45:52.516Z,37.43
2019-02-11T03:48:21.079Z,33.80
2019-02-11T03:50:49.727Z,44.43
2019-02-11T03:53:18.289Z,45.27
2019-02-11T03:55:46.939Z,40.87
2019-02-11T03:58:15.645Z,33.47
2019-02-11T04:00:44.262Z,40.63
2019-02-11T04:03:12.830Z,30.33
2019-02-11T04:05:41.399Z,37.40
2019-02-11T04:08:09.975Z,47.63
2019-02-11T04:10:38.611Z,38.90
2019-02-11T04:13:07.185Z,31.40
2019-02-11T04:15:35.822Z,32.43
2019-02-11T04:18:04.470Z,32.23
2019-02-11T04:20:33.124Z,34.23
2019-02-11T04:23:01.910Z,35.27
2019-02-11T04:25:30.474Z,31.00
2019-02-11T04:27:59.058Z,31.10
2019-02-11T04:30:27.662Z,27.03
2019-02-11T04:32:56.231Z,42.30
2019-02-11T04:35:24.810Z,30.73
2019-02-11T04:37:53.402Z,27.87
2019-02-11T04:40:22.031Z,36.83
2019-02-11T04:42:50.601Z,25.50
2019-02-11T04:45:19.189Z,30.97
2019-02-11T04:47:47.762Z,34.70
2019-02-11T04:50:16.330Z,36.17
2019-02-11T04:52:44.911Z,34.97
2019-02-11T04:55:13.550Z,33.73
2019-02-11T04:57:42.124Z,29.37
2019-02-11T05:00:13.006Z,26.10
2019-02-11T05:02:41.675Z,30.47
2019-02-11T05:05:10.953Z,37.53
2019-02-11T05:07:39.554Z,33.53
2019-02-11T05:10:11.339Z,34.60
2019-02-11T05:12:39.970Z,30.67
2019-02-11T05:15:10.598Z,32.97
2019-02-11T05:17:39.162Z,31.77
2019-02-11T05:20:10.757Z,33.37
2019-02-11T05:22:39.381Z,30.63
2019-02-11T05:25:08.871Z,26.40
2019-02-11T05:27:37.504Z,23.83
2019-02-11T05:30:10.455Z,38.27
2019-02-11T05:32:39.024Z,37.17
2019-02-11T05:35:08.365Z,25.63
2019-02-11T05:37:37.030Z,29.63
2019-02-11T05:40:08.690Z,32.87
2019-02-11T05:42:37.417Z,40.70
2019-02-11T05:45:07.822Z,29.83
2019-02-11T05:47:36.409Z,39.23
2019-02-11T05:50:10.553Z,33.77
2019-02-11T05:52:39.246Z,52.20
2019-02-11T05:55:08.448Z,26.30
2019-02-11T05:57:39.000Z,32.73
2019-02-11T06:00:11.071Z,47.60
2019-02-11T06:02:39.638Z,42.63
2019-02-11T06:05:08.673Z,48.13
2019-02-11T06:07:37.242Z,68.20
2019-02-11T06:10:09.016Z,70.87
2019-02-11T06:12:37.594Z,142.43
2019-02-11T06:15:08.016Z,70.13
2019-02-11T06:17:36.642Z,92.40
2019-02-11T06:20:07.966Z,67.83
2019-02-11T06:22:36.614Z,50.40
2019-02-11T06:25:06.858Z,82.03
2019-02-11T06:27:35.515Z,60.63
2019-02-11T06:30:07.010Z,58.77
2019-02-11T06:32:35.595Z,55.03
2019-02-11T06:35:06.099Z,70.00
2019-02-11T06:37:34.824Z,76.90
2019-02-11T06:40:03.559Z,210.43
2019-02-11T06:42:32.210Z,140.83
2019-02-11T06:45:00.782Z,114.93
2019-02-11T06:47:29.461Z,132.63
2019-02-11T06:49:58.026Z,59.70
2019-02-11T06:52:26.662Z,58.30
2019-02-11T06:54:55.246Z,110.87
2019-02-11T06:57:23.822Z,75.47
2019-02-11T06:59:52.402Z,56.57
2019-02-11T07:02:20.978Z,132.73
2019-02-11T07:04:49.710Z,127.93
2019-02-11T07:07:18.254Z,146.50
2019-02-11T07:09:46.878Z,108.03
2019-02-11T07:12:15.458Z,80.37
2019-02-11T07:14:44.103Z,212.20
2019-02-11T07:17:12.738Z,122.63
2019-02-11T07:19:41.310Z,127.07
2019-02-11T07:22:09.946Z,169.27
2019-02-11T07:24:38.574Z,146.30
2019-02-11T15:20:19.122Z,0.90
2019-02-11T15:22:47.835Z,4.33
2019-02-11T15:25:19.674Z,1.60
2019-02-11T15:27:48.453Z,2.53
2019-02-11T15:30:18.859Z,1.87
2019-02-11T15:32:47.607Z,0.83
2019-02-11T15:35:16.414Z,1.43
2019-02-11T15:37:45.330Z,2.07
2019-02-11T15:40:19.493Z,3.40
2019-02-11T15:42:48.194Z,0.63
2019-02-11T15:45:16.906Z,2.23
2019-02-11T15:47:45.721Z,2.23
2019-02-11T15:50:16.323Z,3.60
2019-02-11T15:52:45.229Z,5.60
2019-02-11T15:55:16.033Z,0.70
2019-02-11T15:57:44.742Z,1.53
2019-02-11T16:00:16.035Z,2.73
2019-02-11T16:02:44.730Z,3.70
2019-02-11T16:05:16.676Z,1.17
2019-02-11T16:07:44.201Z,3.60
2019-02-11T16:10:24.525Z,3.60
2019-02-11T16:12:53.406Z,1.53
2019-02-11T16:15:22.106Z,3.17
2019-02-11T16:17:50.899Z,0.93
2019-02-11T16:20:19.565Z,2.57
2019-02-11T16:22:48.287Z,5.67
2019-02-11T16:25:17.577Z,0.50
2019-02-11T16:27:46.474Z,0.33
2019-02-11T16:30:17.156Z,0.50
2019-02-11T16:32:45.949Z,4.53
2019-02-11T16:35:17.033Z,1.63
2019-02-11T16:37:45.835Z,1.10
2019-02-11T16:40:23.225Z,2.77
2019-02-11T16:42:52.377Z,1.10
2019-02-11T16:45:21.191Z,0.80
2019-02-11T16:47:49.977Z,1.80
2019-02-11T16:50:18.786Z,0.57
2019-02-11T16:52:47.487Z,1.23
2019-02-11T16:55:16.277Z,2.13
2019-02-11T16:57:44.973Z,1.40
2019-02-11T17:00:20.786Z,6.90
2019-02-11T17:02:49.737Z,3.63
2019-02-11T17:05:18.441Z,0.37
2019-02-11T17:07:47.142Z,2.73
2019-02-11T17:10:16.160Z,1.33
2019-02-11T17:12:44.865Z,2.17
2019-02-11T17:15:18.306Z,2.43
2019-02-11T17:17:47.008Z,2.17
2019-02-11T17:20:16.577Z,4.33
2019-02-11T17:22:45.606Z,5.43
2019-02-11T17:25:15.016Z,0.60
2019-02-11T17:27:43.876Z,0.83
2019-02-11T17:30:24.777Z,2.77
2019-02-11T17:32:53.481Z,4.40
2019-02-11T17:35:22.226Z,7.50
2019-02-11T17:37:50.890Z,2.30
2019-02-11T17:40:19.589Z,0.60
2019-02-11T17:42:48.302Z,1.13
2019-02-11T17:45:19.812Z,2.00
2019-02-11T17:47:48.501Z,1.30
2019-02-11T17:50:17.215Z,1.47
2019-02-11T17:52:45.930Z,1.23
2019-02-11T17:55:15.242Z,3.57
2019-02-11T17:57:43.956Z,3.73
2019-02-11T18:00:20.242Z,1.13
2019-02-11T18:02:48.953Z,2.50
2019-02-11T18:05:17.658Z,1.27
2019-02-11T18:07:46.374Z,0.40
2019-02-11T18:10:15.074Z,1.17
2019-02-11T18:12:43.787Z,1.80
2019-02-11T18:15:12.553Z,2.17
2019-02-11T18:17:41.285Z,6.33
2019-02-11T18:20:10.681Z,1.87
2019-02-11T18:22:39.453Z,1.33
2019-02-11T18:25:09.458Z,9.27
2019-02-11T18:27:38.385Z,1.90
2019-02-11T18:30:13.222Z,2.83
2019-02-11T18:32:42.104Z,4.70
2019-02-11T18:35:12.801Z,1.00
2019-02-11T18:37:41.516Z,0.97
2019-02-11T18:40:12.890Z,2.47
2019-02-11T18:42:41.671Z,2.97
2019-02-11T18:45:12.743Z,2.60
2019-02-11T18:47:41.643Z,1.50
2019-02-11T18:50:15.035Z,1.97
2019-02-11T18:52:43.763Z,3.03
2019-02-11T18:55:18.385Z,1.60
2019-02-11T18:57:47.164Z,1.17
2019-02-11T19:00:20.225Z,4.77
2019-02-11T19:02:49.493Z,1.67
2019-02-11T19:05:18.497Z,1.30
2019-02-11T19:07:47.402Z,0.93
2019-02-11T19:10:19.045Z,2.00
2019-02-11T19:12:47.753Z,4.13
2019-02-11T19:15:17.755Z,2.20
2019-02-11T19:17:46.465Z,1.20
2019-02-11T19:20:17.293Z,2.67
2019-02-11T19:22:46.023Z,3.47
2019-02-11T19:25:15.120Z,1.20
2019-02-11T19:27:43.823Z,1.80
2019-02-11T19:30:29.177Z,0.80
2019-02-11T19:32:57.882Z,2.13
2019-02-11T19:35:26.765Z,0.43
2019-02-11T19:37:55.481Z,4.63
2019-02-11T19:40:24.178Z,2.40
2019-02-11T19:42:52.963Z,0.93
2019-02-11T19:45:23.643Z,2.17
2019-02-11T19:47:52.350Z,2.23
2019-02-11T19:50:21.105Z,0.70
2019-02-11T19:52:49.805Z,0.80
2019-02-11T19:55:18.510Z,0.67
2019-02-11T19:57:47.233Z,1.20
2019-02-11T20:00:20.386Z,0.90
2019-02-11T20:02:49.981Z,1.23
2019-02-11T20:05:18.846Z,0.57
2019-02-11T20:07:47.649Z,1.07
2019-02-11T20:10:18.834Z,0.70
2019-02-11T20:12:47.537Z,0.97
2019-02-11T20:15:21.931Z,0.70
2019-02-11T20:17:50.634Z,0.50
2019-02-11T20:20:21.062Z,1.17
2019-02-11T20:22:49.798Z,1.50
2019-02-11T20:25:18.607Z,3.47
2019-02-11T20:27:47.557Z,2.50
2019-02-11T20:30:21.503Z,4.17
2019-02-11T20:32:50.281Z,1.30
2019-02-11T20:35:18.995Z,1.17
2019-02-11T20:37:47.882Z,1.67
2019-02-11T20:40:19.338Z,1.90
2019-02-11T20:42:48.127Z,1.00
2019-02-11T20:45:25.425Z,1.07
2019-02-11T20:47:54.133Z,1.77
2019-02-11T20:50:23.030Z,0.90
2019-02-11T20:52:52.789Z,0.87
2019-02-11T20:55:21.502Z,0.77
2019-02-11T20:57:52.818Z,2.47
2019-02-11T21:00:23.893Z,0.53
2019-02-11T21:02:52.705Z,3.53
2019-02-11T21:05:21.969Z,1.20
2019-02-11T21:07:50.738Z,1.40
2019-02-11T21:10:21.691Z,1.47
2019-02-11T21:12:50.573Z,1.00
2019-02-11T21:15:19.277Z,1.80
2019-02-11T21:17:47.990Z,2.60
2019-02-11T21:20:34.810Z,1.77
2019-02-11T21:23:03.918Z,0.60
2019-02-11T21:25:32.729Z,0.67
2019-02-11T21:28:01.444Z,0.60
2019-02-11T21:30:30.220Z,2.53
2019-02-11T21:32:58.939Z,1.83
2019-02-11T21:35:27.633Z,0.40
2019-02-11T21:37:56.574Z,1.43
2019-02-11T21:40:25.283Z,0.57
2019-02-11T21:42:54.051Z,0.70
2019-02-11T21:45:22.829Z,0.63
2019-02-11T21:47:51.549Z,0.40
2019-02-11T21:50:26.768Z,1.63
2019-02-11T21:52:52.335Z,1.10
2019-02-11T21:55:23.118Z,1.23
2019-02-11T21:57:51.837Z,2.60
2019-02-11T22:00:23.805Z,2.10
2019-02-11T22:02:52.659Z,4.33
2019-02-11T22:05:21.333Z,2.60
2019-02-11T22:07:50.043Z,1.23
2019-02-11T22:10:24.638Z,5.37
2019-02-11T22:12:53.337Z,1.83
2019-02-11T22:15:22.049Z,1.07
2019-02-11T22:17:50.766Z,4.07
2019-02-11T22:20:20.742Z,4.43
2019-02-11T22:22:49.795Z,1.23
2019-02-11T22:25:18.506Z,1.80
2019-02-11T22:27:47.210Z,1.03
2019-02-11T22:30:21.618Z,1.83
2019-02-11T22:32:50.326Z,1.43
2019-02-11T22:35:19.154Z,0.90
2019-02-11T22:37:49.848Z,1.43
2019-02-11T22:40:18.551Z,0.83
2019-02-11T22:42:47.262Z,1.20
2019-02-11T22:45:18.069Z,2.43
2019-02-11T22:47:46.752Z,0.97
2019-02-11T22:50:15.399Z,2.03
2019-02-11T22:52:44.085Z,2.63
2019-02-11T22:55:14.211Z,1.63
2019-02-11T22:57:42.825Z,0.70
2019-02-11T23:00:28.519Z,2.63
2019-02-11T23:02:57.160Z,1.00
2019-02-11T23:05:25.726Z,0.30
2019-02-11T23:07:54.310Z,1.23
2019-02-11T23:10:22.879Z,1.43
2019-02-11T23:12:51.457Z,1.47
2019-02-11T23:15:20.098Z,3.17
2019-02-11T23:17:48.677Z,1.47
2019-02-11T23:20:17.290Z,1.37
2019-02-11T23:22:45.884Z,1.97
2019-02-11T23:25:14.450Z,1.00
2019-02-11T23:27:43.030Z,2.17
2019-02-11T23:30:13.591Z,2.20
2019-02-11T23:32:42.134Z,0.70
2019-02-11T23:35:10.780Z,2.03
2019-02-11T23:37:39.347Z,1.93
2019-02-11T23:40:09.688Z,1.47
2019-02-11T23:42:38.320Z,0.93
2019-02-11T23:45:09.246Z,0.70
2019-02-11T23:47:37.888Z,1.47
2019-02-11T23:50:09.272Z,1.03
2019-02-11T23:52:37.883Z,1.37
2019-02-11T23:55:10.302Z,3.17
2019-02-11T23:57:38.952Z,0.97
